Bawtry, United Kingdom
Current Conditions -  °F | °C
As of 8:20 PM on Wednesday 28 Jan 2015 (Local Time) from EGCN Reporting Station
Light Snow Light Snow  
Wind Chill: 26°   Ceiling: 900
Heat Index: 36°   Visibility: 4mi
Dew Point: 34°   Wind: 16mph
Humidity: 93%   Direction: 230°SW
Pressure: 29.41"   Gusts: NA
Location:  53.43°N, 1.02°W
Report Text: EGCN 282020Z 23014KT 6000 -SN SCT006 BKN009 02/01 Q0996
Loading
Personal Weather Stations






























Interactive Weather Map New forecast layout! Learn more

10-Day Weather Forecast

Advertisements
Track Severe Weather on mobile